AMX382 MMMX-MMSD
Flight info
| Callsign | AMX382 |
|---|---|
| Flight time | 1h 42m |
| Altitude | 36000 |
| Route | SEBON3B SEBON UT124 GDL UJ3 RADAP UT153 DEDKU UT14 TENAY TENAY1B |
| Aircraft | B738/M-SDGIJ1LRWY/SB1 |
Departure
| Time | 2026-04-22 04:30 |
|---|---|
| Airport | Mexico City Benito Juárez International Airport (MMMX) |
Arrival
| Time | 2026-04-22 06:13 |
|---|---|
| Airport | Los Cabos International Airport (MMSD) |
| Time | Latitude | Longitude | Altitude | Speed | Heading |
|---|---|---|---|---|---|
| 2026-04-22 04:05 | 19.43729 | -99.07810 | 7345 ft | 0 kts | 61° |
| 2026-04-22 04:20 | 19.43727 | -99.07815 | 7345 ft | 2 kts | 64° |
| 2026-04-22 04:21 | 19.43720 | -99.07828 | 7345 ft | 2 kts | 60° |
| 2026-04-22 04:21 | 19.43715 | -99.07844 | 7346 ft | 2 kts | 91° |
| 2026-04-22 04:21 | 19.43718 | -99.07859 | 7346 ft | 2 kts | 119° |
| 2026-04-22 04:21 | 19.43727 | -99.07870 | 7346 ft | 0 kts | 146° |
| 2026-04-22 04:22 | 19.43732 | -99.07873 | 7346 ft | 1 kts | 151° |
| 2026-04-22 04:22 | 19.43734 | -99.07874 | 7346 ft | 0 kts | 150° |
| 2026-04-22 04:24 | 19.43718 | -99.07866 | 7346 ft | 6 kts | 153° |
| 2026-04-22 04:24 | 19.43681 | -99.07845 | 7346 ft | 5 kts | 152° |
| 2026-04-22 04:25 | 19.43642 | -99.07821 | 7346 ft | 9 kts | 141° |
| 2026-04-22 04:25 | 19.43636 | -99.07721 | 7344 ft | 21 kts | 59° |
| 2026-04-22 04:25 | 19.43722 | -99.07576 | 7340 ft | 23 kts | 58° |
| 2026-04-22 04:25 | 19.43805 | -99.07433 | 7340 ft | 21 kts | 60° |
| 2026-04-22 04:26 | 19.43870 | -99.07307 | 7343 ft | 18 kts | 60° |
| 2026-04-22 04:26 | 19.43929 | -99.07198 | 7344 ft | 15 kts | 60° |
| 2026-04-22 04:26 | 19.43979 | -99.07111 | 7345 ft | 12 kts | 59° |
| 2026-04-22 04:26 | 19.44030 | -99.07024 | 7346 ft | 16 kts | 58° |
| 2026-04-22 04:27 | 19.44094 | -99.06915 | 7346 ft | 19 kts | 58° |
| 2026-04-22 04:27 | 19.44168 | -99.06787 | 7343 ft | 21 kts | 59° |
| 2026-04-22 04:27 | 19.44250 | -99.06635 | 7338 ft | 25 kts | 59° |
| 2026-04-22 04:27 | 19.44342 | -99.06476 | 7335 ft | 25 kts | 59° |
| 2026-04-22 04:28 | 19.44399 | -99.06371 | 7334 ft | 13 kts | 64° |
| 2026-04-22 04:28 | 19.44418 | -99.06293 | 7334 ft | 3 kts | 92° |
| 2026-04-22 04:28 | 19.44415 | -99.06275 | 7334 ft | 1 kts | 101° |
| 2026-04-22 04:28 | 19.44410 | -99.06256 | 7333 ft | 7 kts | 107° |
| 2026-04-22 04:29 | 19.44337 | -99.06202 | 7332 ft | 16 kts | 174° |
| 2026-04-22 04:29 | 19.44314 | -99.06203 | 7332 ft | 0 kts | 269° |
| 2026-04-22 04:29 | 19.44317 | -99.06247 | 7332 ft | 12 kts | 269° |
| 2026-04-22 04:29 | 19.44261 | -99.06381 | 7333 ft | 29 kts | 238° |
| 2026-04-22 04:30 | 19.44056 | -99.06748 | 7342 ft | 90 kts | 238° |
| 2026-04-22 04:30 | 19.43625 | -99.07514 | 7340 ft | 150 kts | 238° |
| 2026-04-22 04:30 | 19.43004 | -99.08616 | 7434 ft | 190 kts | 240° |
| 2026-04-22 04:30 | 19.42346 | -99.09821 | 8108 ft | 193 kts | 241° |
| 2026-04-22 04:31 | 19.41686 | -99.11072 | 8803 ft | 198 kts | 242° |
| 2026-04-22 04:31 | 19.41021 | -99.12356 | 9301 ft | 206 kts | 241° |
| 2026-04-22 04:31 | 19.40257 | -99.13728 | 9500 ft | 227 kts | 239° |
| 2026-04-22 04:31 | 19.39402 | -99.15215 | 9861 ft | 240 kts | 239° |
| 2026-04-22 04:32 | 19.38532 | -99.16766 | 10179 ft | 256 kts | 240° |
| 2026-04-22 04:32 | 19.37749 | -99.18492 | 10571 ft | 264 kts | 253° |
| 2026-04-22 04:32 | 19.37539 | -99.20417 | 11104 ft | 267 kts | 276° |
| 2026-04-22 04:32 | 19.38056 | -99.22273 | 11786 ft | 261 kts | 298° |
| 2026-04-22 04:33 | 19.39102 | -99.23839 | 12324 ft | 266 kts | 315° |
| 2026-04-22 04:33 | 19.40571 | -99.25124 | 12612 ft | 283 kts | 327° |
| 2026-04-22 04:33 | 19.42177 | -99.26228 | 13677 ft | 267 kts | 327° |
| 2026-04-22 04:33 | 19.43651 | -99.27382 | 14465 ft | 265 kts | 323° |
| 2026-04-22 04:34 | 19.45079 | -99.28625 | 14978 ft | 273 kts | 321° |
| 2026-04-22 04:34 | 19.46380 | -99.30124 | 15545 ft | 280 kts | 306° |
| 2026-04-22 04:34 | 19.47224 | -99.31968 | 16167 ft | 284 kts | 288° |
| 2026-04-22 04:34 | 19.47478 | -99.34057 | 16631 ft | 295 kts | 269° |
| 2026-04-22 04:35 | 19.47055 | -99.36227 | 17084 ft | 305 kts | 252° |
| 2026-04-22 04:35 | 19.46307 | -99.38313 | 17667 ft | 308 kts | 250° |
| 2026-04-22 04:35 | 19.45494 | -99.40447 | 18224 ft | 313 kts | 250° |
| 2026-04-22 04:35 | 19.44676 | -99.42613 | 18735 ft | 321 kts | 250° |
| 2026-04-22 04:36 | 19.43846 | -99.44859 | 19068 ft | 335 kts | 251° |
| 2026-04-22 04:36 | 19.43000 | -99.47182 | 19585 ft | 341 kts | 251° |
| 2026-04-22 04:36 | 19.42149 | -99.49530 | 20150 ft | 345 kts | 251° |
| 2026-04-22 04:36 | 19.41287 | -99.51904 | 20740 ft | 347 kts | 251° |
| 2026-04-22 04:37 | 19.40424 | -99.54278 | 21290 ft | 351 kts | 251° |
| 2026-04-22 04:37 | 19.39544 | -99.56707 | 21861 ft | 353 kts | 252° |
| 2026-04-22 04:37 | 19.38755 | -99.59145 | 22374 ft | 355 kts | 256° |
| 2026-04-22 04:37 | 19.38191 | -99.61728 | 22522 ft | 366 kts | 263° |
| 2026-04-22 04:38 | 19.37875 | -99.64436 | 22713 ft | 378 kts | 267° |
| 2026-04-22 04:38 | 19.37678 | -99.67260 | 22919 ft | 391 kts | 268° |
| 2026-04-22 04:38 | 19.37525 | -99.70179 | 23121 ft | 404 kts | 268° |
| 2026-04-22 04:38 | 19.37375 | -99.73190 | 23486 ft | 411 kts | 268° |
| 2026-04-22 04:39 | 19.37219 | -99.76212 | 23939 ft | 417 kts | 268° |
| 2026-04-22 04:39 | 19.37050 | -99.79283 | 24451 ft | 420 kts | 268° |
| 2026-04-22 04:39 | 19.36872 | -99.82394 | 24562 ft | 423 kts | 268° |
| 2026-04-22 04:39 | 19.36685 | -99.85513 | 25042 ft | 427 kts | 268° |
| 2026-04-22 04:40 | 19.36493 | -99.88620 | 25866 ft | 423 kts | 268° |
| 2026-04-22 04:40 | 19.36301 | -99.91679 | 26423 ft | 425 kts | 267° |
| 2026-04-22 04:40 | 19.36101 | -99.94851 | 26958 ft | 428 kts | 267° |
| 2026-04-22 04:40 | 19.35902 | -99.97974 | 27418 ft | 433 kts | 267° |
| 2026-04-22 04:41 | 19.35698 | -100.01167 | 27945 ft | 435 kts | 267° |
| 2026-04-22 04:41 | 19.35492 | -100.04362 | 28489 ft | 437 kts | 267° |
| 2026-04-22 04:41 | 19.35292 | -100.07549 | 28910 ft | 441 kts | 268° |
| 2026-04-22 04:41 | 19.35217 | -100.10791 | 29407 ft | 442 kts | 271° |
| 2026-04-22 04:42 | 19.35463 | -100.14070 | 29526 ft | 450 kts | 279° |
| 2026-04-22 04:42 | 19.36161 | -100.17306 | 30081 ft | 449 kts | 285° |
| 2026-04-22 04:42 | 19.37059 | -100.20419 | 30631 ft | 449 kts | 288° |
| 2026-04-22 04:42 | 19.38073 | -100.23544 | 31212 ft | 448 kts | 289° |
| 2026-04-22 04:43 | 19.39124 | -100.26627 | 31947 ft | 443 kts | 289° |
| 2026-04-22 04:43 | 19.40178 | -100.29680 | 32614 ft | 439 kts | 289° |
| 2026-04-22 04:43 | 19.41213 | -100.32680 | 33113 ft | 438 kts | 289° |
| 2026-04-22 04:43 | 19.42257 | -100.35731 | 33632 ft | 438 kts | 289° |
| 2026-04-22 04:44 | 19.43276 | -100.38736 | 34160 ft | 437 kts | 288° |
| 2026-04-22 04:44 | 19.44290 | -100.41753 | 34803 ft | 433 kts | 288° |
| 2026-04-22 04:44 | 19.45293 | -100.44762 | 35397 ft | 430 kts | 288° |
| 2026-04-22 04:44 | 19.46281 | -100.47742 | 35936 ft | 428 kts | 288° |
| 2026-04-22 04:45 | 19.47275 | -100.50755 | 36340 ft | 428 kts | 287° |
| 2026-04-22 04:45 | 19.49253 | -100.56782 | 36392 ft | 429 kts | 287° |
| 2026-04-22 04:46 | 19.51204 | -100.62736 | 36378 ft | 428 kts | 288° |
| 2026-04-22 04:46 | 19.53164 | -100.68726 | 36398 ft | 427 kts | 287° |
| 2026-04-22 04:47 | 19.55127 | -100.74710 | 36399 ft | 429 kts | 287° |
| 2026-04-22 04:47 | 19.57147 | -100.80676 | 36388 ft | 428 kts | 288° |
| 2026-04-22 04:48 | 19.59183 | -100.86611 | 36398 ft | 430 kts | 288° |
| 2026-04-22 04:48 | 19.61218 | -100.92557 | 36360 ft | 429 kts | 288° |
| 2026-04-22 04:49 | 19.63266 | -100.98563 | 36343 ft | 429 kts | 288° |
| 2026-04-22 04:49 | 19.65276 | -101.04478 | 36355 ft | 428 kts | 288° |
| 2026-04-22 04:50 | 19.67296 | -101.10430 | 36361 ft | 427 kts | 288° |
| 2026-04-22 04:50 | 19.69302 | -101.16352 | 36381 ft | 428 kts | 288° |
| 2026-04-22 04:51 | 19.71305 | -101.22274 | 36398 ft | 428 kts | 288° |
| 2026-04-22 04:51 | 19.73310 | -101.28210 | 36432 ft | 428 kts | 287° |
| 2026-04-22 04:52 | 19.75322 | -101.34174 | 36471 ft | 429 kts | 288° |
| 2026-04-22 04:52 | 19.77335 | -101.40146 | 36499 ft | 428 kts | 287° |
| 2026-04-22 04:53 | 19.79332 | -101.46072 | 36502 ft | 427 kts | 288° |
| 2026-04-22 04:53 | 19.81333 | -101.52030 | 36514 ft | 429 kts | 287° |
| 2026-04-22 04:54 | 19.83341 | -101.58012 | 36472 ft | 427 kts | 288° |
| 2026-04-22 04:54 | 19.85333 | -101.63948 | 36449 ft | 426 kts | 287° |
| 2026-04-22 04:55 | 19.87315 | -101.69869 | 36422 ft | 426 kts | 287° |
| 2026-04-22 04:55 | 19.89291 | -101.75777 | 36408 ft | 426 kts | 287° |
| 2026-04-22 04:56 | 19.91279 | -101.81734 | 36402 ft | 426 kts | 287° |
| 2026-04-22 04:56 | 19.93253 | -101.87650 | 36397 ft | 425 kts | 287° |
| 2026-04-22 04:57 | 19.95216 | -101.93542 | 36406 ft | 426 kts | 287° |
| 2026-04-22 04:57 | 19.97187 | -101.99468 | 36408 ft | 425 kts | 287° |
| 2026-04-22 04:58 | 19.99156 | -102.05396 | 36399 ft | 425 kts | 287° |
| 2026-04-22 04:58 | 20.01124 | -102.11326 | 36399 ft | 427 kts | 287° |
| 2026-04-22 04:59 | 20.03086 | -102.17244 | 36395 ft | 426 kts | 287° |
| 2026-04-22 04:59 | 20.05058 | -102.23196 | 36388 ft | 425 kts | 287° |
| 2026-04-22 05:00 | 20.07007 | -102.29091 | 36385 ft | 424 kts | 287° |
| 2026-04-22 05:00 | 20.08955 | -102.34985 | 36388 ft | 424 kts | 287° |
| 2026-04-22 05:01 | 20.10909 | -102.40912 | 36387 ft | 423 kts | 287° |
| 2026-04-22 05:01 | 20.12865 | -102.46853 | 36392 ft | 433 kts | 287° |
| 2026-04-22 05:02 | 20.14883 | -102.52997 | 36389 ft | 442 kts | 287° |
| 2026-04-22 05:02 | 20.16908 | -102.59150 | 36383 ft | 438 kts | 287° |
| 2026-04-22 05:03 | 20.18928 | -102.65287 | 36384 ft | 440 kts | 287° |
| 2026-04-22 05:03 | 20.21285 | -102.71265 | 36388 ft | 442 kts | 294° |
| 2026-04-22 05:04 | 20.24185 | -102.77062 | 36383 ft | 441 kts | 296° |
| 2026-04-22 05:04 | 20.27193 | -102.82732 | 36380 ft | 442 kts | 296° |
| 2026-04-22 05:05 | 20.30221 | -102.88443 | 36384 ft | 442 kts | 296° |
| 2026-04-22 05:05 | 20.33214 | -102.94143 | 36379 ft | 440 kts | 296° |
| 2026-04-22 05:06 | 20.36204 | -102.99880 | 36380 ft | 440 kts | 296° |
| 2026-04-22 05:06 | 20.39162 | -103.05582 | 36370 ft | 439 kts | 296° |
| 2026-04-22 05:07 | 20.42119 | -103.11292 | 36359 ft | 438 kts | 296° |
| 2026-04-22 05:07 | 20.45050 | -103.16962 | 36348 ft | 438 kts | 296° |
| 2026-04-22 05:08 | 20.47996 | -103.22667 | 36330 ft | 438 kts | 296° |
| 2026-04-22 05:08 | 20.50979 | -103.28359 | 36312 ft | 437 kts | 297° |
| 2026-04-22 05:09 | 20.54552 | -103.33672 | 36313 ft | 442 kts | 307° |
| 2026-04-22 05:09 | 20.58784 | -103.38480 | 36323 ft | 445 kts | 311° |
| 2026-04-22 05:10 | 20.63134 | -103.43118 | 36324 ft | 444 kts | 311° |
| 2026-04-22 05:10 | 20.67502 | -103.47781 | 36334 ft | 443 kts | 311° |
| 2026-04-22 05:11 | 20.71829 | -103.52453 | 36338 ft | 441 kts | 310° |
| 2026-04-22 05:11 | 20.76135 | -103.57143 | 36337 ft | 440 kts | 310° |
| 2026-04-22 05:12 | 20.80407 | -103.61817 | 36326 ft | 441 kts | 310° |
| 2026-04-22 05:12 | 20.84692 | -103.66521 | 36323 ft | 441 kts | 310° |
| 2026-04-22 05:13 | 20.88952 | -103.71201 | 36328 ft | 440 kts | 310° |
| 2026-04-22 05:13 | 20.93228 | -103.75906 | 36339 ft | 441 kts | 310° |
| 2026-04-22 05:14 | 20.97459 | -103.80563 | 36329 ft | 437 kts | 310° |
| 2026-04-22 05:14 | 21.01706 | -103.85243 | 36320 ft | 440 kts | 310° |
| 2026-04-22 05:15 | 21.05978 | -103.89957 | 36300 ft | 440 kts | 309° |
| 2026-04-22 05:15 | 21.10221 | -103.94637 | 36272 ft | 437 kts | 310° |
| 2026-04-22 05:16 | 21.14477 | -103.99339 | 36256 ft | 437 kts | 309° |
| 2026-04-22 05:16 | 21.18706 | -104.04015 | 36240 ft | 436 kts | 309° |
| 2026-04-22 05:17 | 21.22906 | -104.08663 | 36226 ft | 436 kts | 309° |
| 2026-04-22 05:17 | 21.27127 | -104.13339 | 36236 ft | 435 kts | 309° |
| 2026-04-22 05:18 | 21.33027 | -104.20599 | 36279 ft | 429 kts | 299° |
| 2026-04-22 05:18 | 21.35672 | -104.26294 | 36282 ft | 424 kts | 289° |
| 2026-04-22 05:19 | 21.37691 | -104.32220 | 36273 ft | 423 kts | 286° |
| 2026-04-22 05:19 | 21.39584 | -104.38158 | 36249 ft | 421 kts | 286° |
| 2026-04-22 05:20 | 21.41503 | -104.44143 | 36228 ft | 422 kts | 287° |
| 2026-04-22 05:20 | 21.43430 | -104.50086 | 36196 ft | 422 kts | 287° |
| 2026-04-22 05:21 | 21.45362 | -104.56005 | 36180 ft | 420 kts | 287° |
| 2026-04-22 05:21 | 21.47288 | -104.61898 | 36192 ft | 421 kts | 287° |
| 2026-04-22 05:22 | 21.49217 | -104.67801 | 36195 ft | 420 kts | 287° |
| 2026-04-22 05:22 | 21.51135 | -104.73679 | 36206 ft | 418 kts | 287° |
| 2026-04-22 05:23 | 21.53062 | -104.79597 | 36216 ft | 420 kts | 287° |
| 2026-04-22 05:23 | 21.54993 | -104.85526 | 36219 ft | 420 kts | 287° |
| 2026-04-22 05:24 | 21.56903 | -104.91402 | 36202 ft | 418 kts | 287° |
| 2026-04-22 05:24 | 21.58819 | -104.97304 | 36187 ft | 419 kts | 287° |
| 2026-04-22 05:25 | 21.60732 | -105.03207 | 36149 ft | 419 kts | 287° |
| 2026-04-22 05:25 | 21.62640 | -105.09101 | 36097 ft | 418 kts | 287° |
| 2026-04-22 05:26 | 21.64541 | -105.14980 | 36070 ft | 418 kts | 287° |
| 2026-04-22 05:26 | 21.66448 | -105.20887 | 36043 ft | 417 kts | 287° |
| 2026-04-22 05:27 | 21.68341 | -105.26759 | 36035 ft | 418 kts | 287° |
| 2026-04-22 05:27 | 21.70248 | -105.32684 | 36035 ft | 418 kts | 287° |
| 2026-04-22 05:28 | 21.72141 | -105.38570 | 36032 ft | 418 kts | 287° |
| 2026-04-22 05:28 | 21.74027 | -105.44445 | 36029 ft | 417 kts | 287° |
| 2026-04-22 05:29 | 21.75897 | -105.50344 | 36029 ft | 417 kts | 286° |
| 2026-04-22 05:29 | 21.77631 | -105.56290 | 36030 ft | 416 kts | 285° |
| 2026-04-22 05:30 | 21.79317 | -105.62252 | 36029 ft | 417 kts | 285° |
| 2026-04-22 05:30 | 21.81012 | -105.68219 | 36028 ft | 417 kts | 285° |
| 2026-04-22 05:31 | 21.82714 | -105.74181 | 36027 ft | 417 kts | 285° |
| 2026-04-22 05:31 | 21.84417 | -105.80128 | 36027 ft | 417 kts | 285° |
| 2026-04-22 05:32 | 21.86116 | -105.86059 | 36027 ft | 417 kts | 285° |
| 2026-04-22 05:32 | 21.87821 | -105.92014 | 36028 ft | 416 kts | 285° |
| 2026-04-22 05:33 | 21.89525 | -105.97980 | 36028 ft | 416 kts | 286° |
| 2026-04-22 05:33 | 21.91212 | -106.03895 | 36027 ft | 417 kts | 286° |
| 2026-04-22 05:34 | 21.92911 | -106.09860 | 36027 ft | 417 kts | 286° |
| 2026-04-22 05:34 | 21.94611 | -106.15837 | 36029 ft | 418 kts | 286° |
| 2026-04-22 05:35 | 21.96308 | -106.21813 | 36027 ft | 416 kts | 286° |
| 2026-04-22 05:35 | 21.97996 | -106.27769 | 36027 ft | 417 kts | 286° |
| 2026-04-22 05:36 | 21.99684 | -106.33730 | 36029 ft | 416 kts | 286° |
| 2026-04-22 05:36 | 22.01359 | -106.39656 | 36030 ft | 416 kts | 286° |
| 2026-04-22 05:37 | 22.03046 | -106.45630 | 36027 ft | 417 kts | 286° |
| 2026-04-22 05:37 | 22.04723 | -106.51581 | 36026 ft | 417 kts | 286° |
| 2026-04-22 05:38 | 22.06409 | -106.57571 | 36026 ft | 416 kts | 286° |
| 2026-04-22 05:38 | 22.08099 | -106.63529 | 36028 ft | 417 kts | 287° |
| 2026-04-22 05:39 | 22.10099 | -106.69408 | 36027 ft | 417 kts | 290° |
| 2026-04-22 05:39 | 22.12238 | -106.75206 | 36025 ft | 417 kts | 290° |
| 2026-04-22 05:40 | 22.14366 | -106.81014 | 36026 ft | 418 kts | 290° |
| 2026-04-22 05:40 | 22.16476 | -106.86859 | 36025 ft | 417 kts | 290° |
| 2026-04-22 05:41 | 22.18565 | -106.92709 | 36025 ft | 417 kts | 290° |
| 2026-04-22 05:41 | 22.20633 | -106.98532 | 36026 ft | 418 kts | 290° |
| 2026-04-22 05:42 | 22.22709 | -107.04398 | 36023 ft | 417 kts | 290° |
| 2026-04-22 05:42 | 22.24769 | -107.10230 | 36023 ft | 418 kts | 290° |
| 2026-04-22 05:43 | 22.26839 | -107.16104 | 36021 ft | 418 kts | 290° |
| 2026-04-22 05:43 | 22.28898 | -107.21945 | 36026 ft | 418 kts | 290° |
| 2026-04-22 05:44 | 22.30973 | -107.27833 | 36016 ft | 417 kts | 290° |
| 2026-04-22 05:44 | 22.33033 | -107.33673 | 36019 ft | 418 kts | 290° |
| 2026-04-22 05:45 | 22.35097 | -107.39535 | 36020 ft | 417 kts | 290° |
| 2026-04-22 05:45 | 22.37155 | -107.45391 | 36024 ft | 418 kts | 290° |
| 2026-04-22 05:46 | 22.39225 | -107.51295 | 36026 ft | 419 kts | 290° |
| 2026-04-22 05:46 | 22.41281 | -107.57162 | 36028 ft | 418 kts | 290° |
| 2026-04-22 05:47 | 22.43334 | -107.63036 | 36030 ft | 419 kts | 290° |
| 2026-04-22 05:47 | 22.45382 | -107.68903 | 36023 ft | 417 kts | 290° |
| 2026-04-22 05:48 | 22.47422 | -107.74754 | 36023 ft | 417 kts | 290° |
| 2026-04-22 05:48 | 22.49473 | -107.80646 | 36030 ft | 417 kts | 290° |
| 2026-04-22 05:49 | 22.51501 | -107.86479 | 36032 ft | 417 kts | 290° |
| 2026-04-22 05:49 | 22.53519 | -107.92289 | 35868 ft | 402 kts | 290° |
| 2026-04-22 05:50 | 22.54481 | -107.95065 | 35490 ft | 395 kts | 290° |
| 2026-04-22 05:50 | 22.55446 | -107.97852 | 34891 ft | 393 kts | 290° |
| 2026-04-22 05:50 | 22.56393 | -108.00588 | 34209 ft | 393 kts | 290° |
| 2026-04-22 05:50 | 22.57352 | -108.03361 | 33648 ft | 389 kts | 290° |
| 2026-04-22 05:51 | 22.58297 | -108.06094 | 33154 ft | 385 kts | 290° |
| 2026-04-22 05:51 | 22.59222 | -108.08771 | 32644 ft | 382 kts | 290° |
| 2026-04-22 05:51 | 22.60140 | -108.11427 | 32124 ft | 379 kts | 290° |
| 2026-04-22 05:51 | 22.61062 | -108.14101 | 31593 ft | 376 kts | 291° |
| 2026-04-22 05:52 | 22.61960 | -108.16705 | 31075 ft | 373 kts | 290° |
| 2026-04-22 05:52 | 22.62860 | -108.19312 | 30551 ft | 370 kts | 290° |
| 2026-04-22 05:52 | 22.63769 | -108.21948 | 30027 ft | 372 kts | 290° |
| 2026-04-22 05:52 | 22.64674 | -108.24574 | 29506 ft | 376 kts | 290° |
| 2026-04-22 05:53 | 22.65583 | -108.27212 | 28957 ft | 374 kts | 290° |
| 2026-04-22 05:53 | 22.66482 | -108.29825 | 28433 ft | 371 kts | 290° |
| 2026-04-22 05:53 | 22.67375 | -108.32421 | 27920 ft | 368 kts | 290° |
| 2026-04-22 05:53 | 22.68254 | -108.34978 | 27407 ft | 365 kts | 290° |
| 2026-04-22 05:54 | 22.69139 | -108.37555 | 26884 ft | 362 kts | 290° |
| 2026-04-22 05:54 | 22.70013 | -108.40100 | 26377 ft | 360 kts | 290° |
| 2026-04-22 05:54 | 22.70876 | -108.42616 | 25873 ft | 357 kts | 290° |
| 2026-04-22 05:54 | 22.71738 | -108.45129 | 25367 ft | 354 kts | 290° |
| 2026-04-22 05:55 | 22.72584 | -108.47600 | 24872 ft | 352 kts | 290° |
| 2026-04-22 05:55 | 22.73433 | -108.50078 | 24367 ft | 349 kts | 289° |
| 2026-04-22 05:55 | 22.74276 | -108.52538 | 23875 ft | 347 kts | 289° |
| 2026-04-22 05:55 | 22.75108 | -108.54970 | 23390 ft | 345 kts | 289° |
| 2026-04-22 05:56 | 22.75929 | -108.57371 | 22909 ft | 343 kts | 289° |
| 2026-04-22 05:56 | 22.76757 | -108.59795 | 22420 ft | 341 kts | 289° |
| 2026-04-22 05:56 | 22.77577 | -108.62195 | 21953 ft | 339 kts | 289° |
| 2026-04-22 05:56 | 22.78385 | -108.64561 | 21479 ft | 337 kts | 289° |
| 2026-04-22 05:57 | 22.79194 | -108.66935 | 20996 ft | 336 kts | 289° |
| 2026-04-22 05:57 | 22.79998 | -108.69295 | 20520 ft | 335 kts | 289° |
| 2026-04-22 05:57 | 22.80807 | -108.71669 | 20044 ft | 334 kts | 288° |
| 2026-04-22 05:57 | 22.81604 | -108.74007 | 19571 ft | 333 kts | 288° |
| 2026-04-22 05:58 | 22.82405 | -108.76364 | 19094 ft | 332 kts | 288° |
| 2026-04-22 05:58 | 22.83205 | -108.78717 | 18581 ft | 333 kts | 288° |
| 2026-04-22 05:58 | 22.83996 | -108.81046 | 18077 ft | 333 kts | 288° |
| 2026-04-22 05:58 | 22.84789 | -108.83380 | 17601 ft | 332 kts | 288° |
| 2026-04-22 05:59 | 22.85585 | -108.85730 | 17125 ft | 331 kts | 288° |
| 2026-04-22 05:59 | 22.86371 | -108.88045 | 16652 ft | 330 kts | 288° |
| 2026-04-22 05:59 | 22.87167 | -108.90395 | 16192 ft | 328 kts | 288° |
| 2026-04-22 05:59 | 22.87946 | -108.92692 | 15740 ft | 327 kts | 288° |
| 2026-04-22 06:00 | 22.88734 | -108.95016 | 15255 ft | 326 kts | 288° |
| 2026-04-22 06:00 | 22.89507 | -108.97299 | 14799 ft | 325 kts | 288° |
| 2026-04-22 06:00 | 22.90283 | -108.99592 | 14352 ft | 324 kts | 288° |
| 2026-04-22 06:00 | 22.91055 | -109.01874 | 13885 ft | 323 kts | 288° |
| 2026-04-22 06:01 | 22.91820 | -109.04137 | 13427 ft | 322 kts | 288° |
| 2026-04-22 06:01 | 22.92594 | -109.06428 | 12972 ft | 320 kts | 288° |
| 2026-04-22 06:01 | 22.93352 | -109.08670 | 12542 ft | 319 kts | 288° |
| 2026-04-22 06:01 | 22.94109 | -109.10913 | 12068 ft | 318 kts | 288° |
| 2026-04-22 06:02 | 22.94865 | -109.13152 | 11622 ft | 316 kts | 288° |
| 2026-04-22 06:02 | 22.95529 | -109.15121 | 11256 ft | 314 kts | 288° |
| 2026-04-22 06:02 | 22.96317 | -109.17459 | 10810 ft | 312 kts | 288° |
| 2026-04-22 06:02 | 22.97119 | -109.19837 | 10378 ft | 309 kts | 288° |
| 2026-04-22 06:03 | 22.97830 | -109.21945 | 10085 ft | 302 kts | 288° |
| 2026-04-22 06:03 | 22.98537 | -109.24041 | 9908 ft | 292 kts | 287° |
| 2026-04-22 06:03 | 22.99224 | -109.26083 | 9547 ft | 290 kts | 287° |
| 2026-04-22 06:03 | 22.99905 | -109.28125 | 9212 ft | 287 kts | 286° |
| 2026-04-22 06:04 | 23.00370 | -109.30203 | 8978 ft | 278 kts | 274° |
| 2026-04-22 06:04 | 23.00371 | -109.32254 | 8804 ft | 267 kts | 263° |
| 2026-04-22 06:04 | 23.00171 | -109.34261 | 8458 ft | 265 kts | 261° |
| 2026-04-22 06:04 | 22.99954 | -109.36234 | 8026 ft | 267 kts | 262° |
| 2026-04-22 06:05 | 22.99769 | -109.38232 | 7690 ft | 266 kts | 263° |
| 2026-04-22 06:05 | 22.99612 | -109.40241 | 7350 ft | 265 kts | 264° |
| 2026-04-22 06:05 | 22.99470 | -109.42226 | 6992 ft | 264 kts | 264° |
| 2026-04-22 06:05 | 22.99331 | -109.44199 | 6627 ft | 264 kts | 264° |
| 2026-04-22 06:06 | 22.99189 | -109.46175 | 6246 ft | 264 kts | 264° |
| 2026-04-22 06:06 | 22.99045 | -109.48168 | 5892 ft | 264 kts | 264° |
| 2026-04-22 06:06 | 22.98902 | -109.50129 | 5586 ft | 261 kts | 264° |
| 2026-04-22 06:06 | 22.98757 | -109.52103 | 5210 ft | 261 kts | 264° |
| 2026-04-22 06:07 | 22.98614 | -109.54052 | 4872 ft | 260 kts | 265° |
| 2026-04-22 06:07 | 22.98472 | -109.56001 | 4629 ft | 254 kts | 265° |
| 2026-04-22 06:07 | 22.98336 | -109.57874 | 4458 ft | 246 kts | 265° |
| 2026-04-22 06:07 | 22.98203 | -109.59697 | 4320 ft | 236 kts | 265° |
| 2026-04-22 06:08 | 22.98071 | -109.61433 | 4111 ft | 230 kts | 265° |
| 2026-04-22 06:08 | 22.97913 | -109.63145 | 3718 ft | 230 kts | 264° |
| 2026-04-22 06:08 | 22.97743 | -109.64831 | 3440 ft | 220 kts | 264° |
| 2026-04-22 06:08 | 22.97580 | -109.66466 | 3207 ft | 210 kts | 265° |
| 2026-04-22 06:09 | 22.97580 | -109.67985 | 3076 ft | 195 kts | 281° |
| 2026-04-22 06:09 | 22.98142 | -109.69245 | 2924 ft | 181 kts | 315° |
| 2026-04-22 06:09 | 22.99136 | -109.70025 | 2806 ft | 174 kts | 333° |
| 2026-04-22 06:09 | 23.00266 | -109.70441 | 2754 ft | 162 kts | 351° |
| 2026-04-22 06:10 | 23.01372 | -109.70541 | 2551 ft | 157 kts | 356° |
| 2026-04-22 06:10 | 23.02436 | -109.70628 | 2391 ft | 151 kts | 354° |
| 2026-04-22 06:10 | 23.03496 | -109.70742 | 2264 ft | 152 kts | 354° |
| 2026-04-22 06:10 | 23.04553 | -109.70863 | 2132 ft | 151 kts | 353° |
| 2026-04-22 06:11 | 23.05596 | -109.70981 | 2013 ft | 150 kts | 353° |
| 2026-04-22 06:11 | 23.06643 | -109.71101 | 1816 ft | 151 kts | 353° |
| 2026-04-22 06:11 | 23.07678 | -109.71218 | 1591 ft | 148 kts | 353° |
| 2026-04-22 06:11 | 23.08712 | -109.71339 | 1375 ft | 149 kts | 352° |
| 2026-04-22 06:12 | 23.09743 | -109.71455 | 1139 ft | 148 kts | 353° |
| 2026-04-22 06:12 | 23.10770 | -109.71565 | 898 ft | 148 kts | 353° |
| 2026-04-22 06:12 | 23.11790 | -109.71677 | 710 ft | 144 kts | 352° |
| 2026-04-22 06:12 | 23.12784 | -109.71789 | 534 ft | 141 kts | 352° |
| 2026-04-22 06:13 | 23.13786 | -109.71918 | 378 ft | 148 kts | 352° |
| 2026-04-22 06:13 | 23.14741 | -109.72027 | 353 ft | 114 kts | 354° |
| 2026-04-22 06:13 | 23.15292 | -109.72091 | 370 ft | 48 kts | 354° |
| 2026-04-22 06:13 | 23.15590 | -109.72124 | 375 ft | 42 kts | 354° |
| 2026-04-22 06:14 | 23.15811 | -109.72129 | 379 ft | 20 kts | 16° |
| 2026-04-22 06:14 | 23.15932 | -109.72071 | 377 ft | 18 kts | 26° |
| 2026-04-22 06:14 | 23.16044 | -109.72012 | 373 ft | 10 kts | 25° |
| 2026-04-22 06:14 | 23.16086 | -109.71989 | 373 ft | 6 kts | 33° |
| 2026-04-22 06:15 | 23.16131 | -109.71930 | 370 ft | 15 kts | 66° |
| 2026-04-22 06:15 | 23.16086 | -109.71847 | 365 ft | 15 kts | 180° |
| 2026-04-22 06:15 | 23.15977 | -109.71859 | 364 ft | 15 kts | 182° |
| 2026-04-22 06:15 | 23.15871 | -109.71852 | 363 ft | 13 kts | 174° |
| 2026-04-22 06:16 | 23.15782 | -109.71843 | 362 ft | 9 kts | 174° |
| 2026-04-22 06:16 | 23.15727 | -109.71833 | 360 ft | 7 kts | 151° |
| 2026-04-22 06:16 | 23.15714 | -109.71790 | 357 ft | 4 kts | 88° |
| 2026-04-22 06:16 | 23.15714 | -109.71781 | 357 ft | 0 kts | 86° |
| 2026-04-22 06:17 | 23.15715 | -109.71771 | 356 ft | 0 kts | 85° |